Terminal Aerodrome Forecast
Issued by NWS

Home | Current Version | Previous Version | Text Only | Print | Product List | Glossary Off
Versions: 1 2 3 4 5 6 7 8 9 10 11 12 13 14 15 16 17

115
FTUS43 KGRB 090234 AAB
TAFMTW
TAF AMD
KMTW 090234Z 0903/0924 29014G21KT P6SM SCT070
     FM090700 29009KT P6SM BKN035
     FM091500 28011G16KT P6SM BKN040
     FM092200 27008KT P6SM SCT045=

USA.gov is the U.S. government's official web portal to all federal, state and local government web resources and services.